Time;durP1;ratioP1;P1;durP2;ratioP2;P2;SDS_P1;SDS_P2;PMS_P1;PMS_P2;Temp;Humidity;BMP_temperature;BMP_pressure;BME280_temperature;BME280_humidity;BME280_pressure;Samples;Min_cycle;Max_cycle;Signal;HPM_P1;HPM_P2
2022/08/27 00:00:31;;;;;;;7.22;6.53;;;;;;;;;;5056108;28;20199;-77
2022/08/27 00:02:58;;;;;;;8.23;6.43;;;;;;;;;;5058728;28;20292;-78
2022/08/27 00:05:25;;;;;;;8.10;6.93;;;;;;;;;;5064466;28;20233;-77
2022/08/27 00:07:53;;;;;;;7.88;7.07;;;;;;;;;;5060241;28;20598;-78
2022/08/27 00:10:23;;;;;;;12.82;9.35;;;;;;;;;;5064636;28;20217;-79
2022/08/27 00:12:51;;;;;;;8.38;7.50;;;;;;;;;;5057449;28;20205;-77
2022/08/27 00:15:18;;;;;;;9.68;8.43;;;;;;;;;;5071243;28;20216;-77
2022/08/27 00:17:46;;;;;;;16.27;10.25;;;;;;;;;;5061254;28;20209;-79
2022/08/27 00:20:16;;;;;;;8.68;7.78;;;;;;;;;;5062200;28;20229;-78
2022/08/27 00:22:44;;;;;;;10.90;7.72;;;;;;;;;;5061539;28;20237;-77
2022/08/27 00:25:11;;;;;;;12.23;11.00;;;;;;;;;;5060034;28;20260;-76
2022/08/27 00:27:39;;;;;;;10.38;9.07;;;;;;;;;;5057486;28;20289;-78
2022/08/27 00:30:09;;;;;;;9.15;8.25;;;;;;;;;;5063751;28;20230;-78
2022/08/27 00:32:37;;;;;;;10.73;9.40;;;;;;;;;;5056050;28;20286;-77
2022/08/27 00:35:04;;;;;;;13.65;9.05;;;;;;;;;;5067791;28;20245;-77
2022/08/27 00:37:32;;;;;;;10.98;9.68;;;;;;;;;;5062539;28;20756;-77
2022/08/27 00:39:59;;;;;;;11.82;10.05;;;;;;;;;;5067645;28;20239;-78
2022/08/27 00:42:26;;;;;;;11.18;9.63;;;;;;;;;;5057670;28;20209;-76
2022/08/27 00:44:58;;;;;;;11.32;9.88;;;;;;;;;;5064322;28;20232;-77
2022/08/27 00:47:27;;;;;;;11.60;10.40;;;;;;;;;;5063902;28;20241;-77
2022/08/27 00:50:03;;;;;;;13.35;10.10;;;;;;;;;;5060578;28;20271;-77
2022/08/27 00:52:32;;;;;;;12.30;10.13;;;;;;;;;;5067129;28;20268;-77
2022/08/27 00:55:02;;;;;;;12.10;10.35;;;;;;;;;;5060044;28;20704;-77
2022/08/27 00:57:30;;;;;;;15.32;10.82;;;;;;;;;;5053308;28;20323;-78
2022/08/27 00:59:57;;;;;;;12.15;10.65;;;;;;;;;;5054649;28;20212;-77
2022/08/27 01:02:28;;;;;;;14.77;11.70;;;;;;;;;;5053507;28;20969;-75
2022/08/27 01:05:00;;;;;;;15.38;10.88;;;;;;;;;;5052010;28;20241;-77
2022/08/27 01:07:29;;;;;;;14.32;11.63;;;;;;;;;;5050067;28;20296;-78
2022/08/27 01:09:59;;;;;;;13.35;10.07;;;;;;;;;;5056872;28;20244;-78
2022/08/27 01:12:27;;;;;;;18.58;12.25;;;;;;;;;;5058334;28;20271;-78
2022/08/27 01:14:55;;;;;;;12.55;11.07;;;;;;;;;;5054909;28;20309;-79
2022/08/27 01:17:23;;;;;;;11.65;10.40;;;;;;;;;;5058346;28;20281;-79
2022/08/27 01:19:53;;;;;;;11.38;10.18;;;;;;;;;;5058425;28;20240;-79
2022/08/27 01:22:40;;;;;;;12.68;10.45;;;;;;;;;;5039758;28;20236;-78
2022/08/27 01:25:09;;;;;;;12.60;10.20;;;;;;;;;;5057827;28;20324;-79
2022/08/27 01:27:36;;;;;;;13.15;10.10;;;;;;;;;;5049311;28;20206;-78
2022/08/27 01:30:04;;;;;;;14.38;10.10;;;;;;;;;;5060545;28;20264;-77
2022/08/27 01:32:33;;;;;;;10.73;9.63;;;;;;;;;;5051456;28;20289;-77
2022/08/27 01:35:01;;;;;;;10.52;9.45;;;;;;;;;;5052604;28;20316;-78
2022/08/27 01:37:28;;;;;;;13.27;10.95;;;;;;;;;;5047402;28;20230;-75
2022/08/27 01:39:57;;;;;;;12.95;11.05;;;;;;;;;;5046954;28;20206;-78
2022/08/27 01:42:33;;;;;;;12.00;10.70;;;;;;;;;;5052733;28;20810;-77
2022/08/27 01:45:02;;;;;;;13.00;11.32;;;;;;;;;;5049339;28;20324;-79
2022/08/27 01:47:32;;;;;;;12.25;10.68;;;;;;;;;;5060207;28;20198;-78
2022/08/27 01:50:01;;;;;;;12.18;11.00;;;;;;;;;;5058084;28;20226;-79
2022/08/27 01:52:29;;;;;;;14.75;11.43;;;;;;;;;;5049544;28;20269;-78
2022/08/27 01:54:57;;;;;;;15.20;11.48;;;;;;;;;;5051207;28;20353;-78
2022/08/27 01:57:25;;;;;;;13.50;10.88;;;;;;;;;;5053361;28;20853;-77
2022/08/27 01:59:53;;;;;;;13.52;10.85;;;;;;;;;;5051745;28;20208;-79
2022/08/27 02:02:21;;;;;;;12.77;11.48;;;;;;;;;;5056944;28;20703;-77
2022/08/27 02:04:49;;;;;;;14.32;10.98;;;;;;;;;;5062840;28;20765;-77
2022/08/27 02:07:17;;;;;;;12.82;11.48;;;;;;;;;;5051952;28;20312;-78
2022/08/27 02:09:44;;;;;;;13.02;10.68;;;;;;;;;;5045711;28;20364;-77
2022/08/27 02:12:12;;;;;;;15.88;13.00;;;;;;;;;;5051021;28;20301;-77
2022/08/27 02:14:39;;;;;;;21.17;17.25;;;;;;;;;;5051410;28;20289;-76
2022/08/27 02:17:06;;;;;;;16.17;12.80;;;;;;;;;;5051526;28;20292;-79
2022/08/27 02:19:33;;;;;;;16.23;13.80;;;;;;;;;;5047124;28;20205;-78
2022/08/27 02:22:01;;;;;;;15.70;12.57;;;;;;;;;;5050170;28;21124;-79
2022/08/27 02:24:28;;;;;;;14.60;12.35;;;;;;;;;;5036244;28;20232;-77
2022/08/27 02:26:56;;;;;;;16.63;12.45;;;;;;;;;;5055149;28;20305;-78
2022/08/27 02:29:23;;;;;;;16.02;12.88;;;;;;;;;;5052999;28;20273;-78
2022/08/27 02:31:51;;;;;;;18.95;14.30;;;;;;;;;;5049800;28;20201;-79
2022/08/27 02:34:18;;;;;;;18.40;14.82;;;;;;;;;;5054532;28;20305;-78
2022/08/27 02:36:46;;;;;;;15.68;14.02;;;;;;;;;;5055481;28;20289;-77
2022/08/27 02:39:13;;;;;;;16.05;14.10;;;;;;;;;;5050093;28;20206;-75
2022/08/27 02:41:41;;;;;;;16.80;14.02;;;;;;;;;;5052809;28;20254;-78
2022/08/27 02:44:09;;;;;;;19.88;14.02;;;;;;;;;;5051546;28;21180;-77
2022/08/27 02:46:40;;;;;;;18.60;14.95;;;;;;;;;;5044647;28;20213;-77
2022/08/27 02:49:08;;;;;;;21.70;16.30;;;;;;;;;;5057130;28;20236;-79
2022/08/27 02:51:36;;;;;;;20.00;16.20;;;;;;;;;;5048793;28;20197;-78
2022/08/27 02:54:03;;;;;;;23.83;18.02;;;;;;;;;;5056549;28;20398;-76
2022/08/27 02:56:34;;;;;;;23.65;16.90;;;;;;;;;;5054024;28;20217;-77
2022/08/27 02:59:01;;;;;;;17.58;14.95;;;;;;;;;;5053438;28;20705;-78
2022/08/27 03:01:28;;;;;;;21.88;16.02;;;;;;;;;;5048634;28;20651;-77
2022/08/27 03:03:57;;;;;;;21.92;16.52;;;;;;;;;;5053991;28;20236;-77
2022/08/27 03:06:24;;;;;;;15.95;14.02;;;;;;;;;;5053713;28;20268;-77
2022/08/27 03:08:51;;;;;;;19.00;14.20;;;;;;;;;;5065318;28;20254;-77
2022/08/27 03:11:23;;;;;;;19.52;15.35;;;;;;;;;;5034982;28;20831;-77
2022/08/27 03:13:51;;;;;;;16.45;14.30;;;;;;;;;;5039550;28;20350;-77
2022/08/27 03:16:18;;;;;;;16.52;14.13;;;;;;;;;;5058461;28;20208;-78
2022/08/27 03:18:46;;;;;;;19.33;15.13;;;;;;;;;;5063507;28;20209;-78
2022/08/27 03:21:18;;;;;;;27.95;20.95;;;;;;;;;;5059192;28;20296;-77
2022/08/27 03:23:47;;;;;;;24.27;18.60;;;;;;;;;;5053564;28;20217;-77
2022/08/27 03:26:15;;;;;;;19.08;16.35;;;;;;;;;;5060558;28;20721;-78
2022/08/27 03:28:42;;;;;;;20.55;14.95;;;;;;;;;;5052371;28;20740;-78
2022/08/27 03:31:13;;;;;;;18.00;15.52;;;;;;;;;;5062508;28;20233;-79
2022/08/27 03:33:42;;;;;;;20.90;16.30;;;;;;;;;;5029199;28;20300;-77
2022/08/27 03:36:09;;;;;;;20.85;14.65;;;;;;;;;;5049874;28;20205;-77
2022/08/27 03:38:36;;;;;;;19.88;15.70;;;;;;;;;;5058024;28;20328;-77
2022/08/27 03:41:04;;;;;;;17.70;15.85;;;;;;;;;;5038061;28;20212;-77
2022/08/27 03:43:31;;;;;;;23.60;17.08;;;;;;;;;;5054015;28;20228;-77
2022/08/27 03:45:59;;;;;;;20.27;16.88;;;;;;;;;;5037221;28;20908;-77
2022/08/27 03:48:28;;;;;;;25.35;17.58;;;;;;;;;;5061318;28;20205;-77
2022/08/27 03:50:56;;;;;;;25.50;17.65;;;;;;;;;;5052831;28;20255;-78
2022/08/27 03:53:23;;;;;;;22.35;17.55;;;;;;;;;;5058513;28;20251;-77
2022/08/27 03:55:50;;;;;;;20.35;16.17;;;;;;;;;;5052455;28;20294;-77
2022/08/27 03:58:18;;;;;;;19.45;15.43;;;;;;;;;;5058728;28;20226;-78
2022/08/27 04:00:45;;;;;;;20.80;16.70;;;;;;;;;;5055181;28;20661;-77
2022/08/27 04:03:13;;;;;;;21.60;16.55;;;;;;;;;;5060354;28;20236;-79
2022/08/27 04:05:41;;;;;;;21.98;17.05;;;;;;;;;;5062274;28;20861;-77
2022/08/27 04:08:12;;;;;;;21.17;17.20;;;;;;;;;;5062140;28;20595;-77
2022/08/27 04:10:41;;;;;;;24.10;18.85;;;;;;;;;;5063553;28;20221;-77
2022/08/27 04:13:08;;;;;;;30.40;22.73;;;;;;;;;;5059990;28;20752;-77
2022/08/27 04:15:35;;;;;;;26.85;22.92;;;;;;;;;;5059217;28;20213;-77
2022/08/27 04:18:06;;;;;;;31.85;22.92;;;;;;;;;;5062023;28;20210;-77
2022/08/27 04:20:34;;;;;;;31.27;24.60;;;;;;;;;;5066968;28;20754;-78
2022/08/27 04:23:02;;;;;;;27.38;23.40;;;;;;;;;;5058450;28;20221;-78
2022/08/27 04:25:29;;;;;;;30.58;24.17;;;;;;;;;;5060738;28;20233;-78
2022/08/27 04:27:57;;;;;;;28.88;23.80;;;;;;;;;;5061612;28;20767;-77
2022/08/27 04:30:24;;;;;;;38.92;26.85;;;;;;;;;;5061832;28;20229;-76
2022/08/27 04:32:51;;;;;;;31.48;25.30;;;;;;;;;;5054060;28;34745;-77
2022/08/27 04:35:19;;;;;;;30.33;23.60;;;;;;;;;;5043124;28;20316;-78
2022/08/27 04:37:46;;;;;;;31.33;24.20;;;;;;;;;;5065960;28;20292;-76
2022/08/27 04:40:13;;;;;;;31.95;24.58;;;;;;;;;;5059550;28;20309;-77
2022/08/27 04:42:41;;;;;;;35.38;24.10;;;;;;;;;;5062996;28;20240;-79
2022/08/27 04:45:08;;;;;;;37.15;26.67;;;;;;;;;;5051262;28;20253;-76
2022/08/27 04:47:36;;;;;;;35.60;27.90;;;;;;;;;;5074050;28;20267;-77
2022/08/27 04:50:03;;;;;;;41.35;29.23;;;;;;;;;;5073416;28;20253;-76
2022/08/27 04:52:31;;;;;;;38.17;29.30;;;;;;;;;;5064719;28;20692;-77
2022/08/27 04:54:59;;;;;;;36.88;28.58;;;;;;;;;;5066257;28;20230;-79
2022/08/27 04:57:26;;;;;;;40.33;31.67;;;;;;;;;;5057500;28;20289;-78
2022/08/27 04:59:55;;;;;;;42.65;30.83;;;;;;;;;;5063991;28;20231;-77
2022/08/27 05:02:22;;;;;;;41.25;30.63;;;;;;;;;;5039449;28;20297;-77
2022/08/27 05:04:50;;;;;;;41.17;30.52;;;;;;;;;;5044514;28;20362;-77
2022/08/27 05:07:18;;;;;;;39.05;29.80;;;;;;;;;;5058336;28;20229;-78
2022/08/27 05:09:45;;;;;;;40.30;29.83;;;;;;;;;;5047566;28;20317;-76
2022/08/27 05:12:12;;;;;;;40.85;28.85;;;;;;;;;;5045011;28;22727;-78
2022/08/27 05:14:39;;;;;;;41.28;28.65;;;;;;;;;;5040294;28;20245;-76
2022/08/27 05:17:07;;;;;;;35.17;27.63;;;;;;;;;;5058609;28;20810;-77
2022/08/27 05:19:34;;;;;;;36.15;26.55;;;;;;;;;;5059682;28;20834;-78
2022/08/27 05:22:01;;;;;;;37.53;27.23;;;;;;;;;;5041774;28;20235;-77
2022/08/27 05:24:28;;;;;;;31.65;24.92;;;;;;;;;;5068791;28;20322;-78
2022/08/27 05:26:56;;;;;;;31.67;25.17;;;;;;;;;;5044348;28;20251;-77
2022/08/27 05:29:23;;;;;;;29.65;23.75;;;;;;;;;;5060758;28;20790;-77
2022/08/27 05:31:50;;;;;;;28.83;22.45;;;;;;;;;;5067758;28;20216;-78
2022/08/27 05:34:17;;;;;;;27.02;21.50;;;;;;;;;;5065332;28;20249;-76
2022/08/27 05:36:52;;;;;;;23.70;19.70;;;;;;;;;;5056591;28;20216;-78
2022/08/27 05:39:20;;;;;;;29.08;22.52;;;;;;;;;;5059452;28;20234;-77
2022/08/27 05:41:47;;;;;;;28.13;22.38;;;;;;;;;;5054999;28;20206;-75
2022/08/27 05:44:16;;;;;;;27.55;22.08;;;;;;;;;;5063319;28;20289;-76
2022/08/27 05:47:03;;;;;;;24.70;21.10;;;;;;;;;;5064957;28;20215;-76
2022/08/27 05:49:30;;;;;;;22.98;20.50;;;;;;;;;;5063644;28;20329;-77
2022/08/27 05:51:57;;;;;;;26.08;21.02;;;;;;;;;;5065969;28;20221;-78
2022/08/27 05:54:25;;;;;;;26.42;21.85;;;;;;;;;;5069028;28;20249;-78
2022/08/27 05:56:52;;;;;;;25.85;21.40;;;;;;;;;;5038907;28;20232;-77
2022/08/27 06:02:05;;;;;;;25.65;21.45;;;;;;;;;;5056884;28;20336;-78
2022/08/27 06:04:33;;;;;;;27.23;20.60;;;;;;;;;;5057495;28;20232;-78
2022/08/27 06:07:00;;;;;;;24.67;20.92;;;;;;;;;;5064796;28;20217;-76
2022/08/27 06:09:28;;;;;;;26.67;21.30;;;;;;;;;;5056310;28;20229;-77
2022/08/27 06:11:56;;;;;;;27.48;21.45;;;;;;;;;;5058211;28;20829;-78
2022/08/27 06:14:23;;;;;;;24.88;20.73;;;;;;;;;;5059661;28;20218;-77
2022/08/27 06:16:51;;;;;;;25.17;20.35;;;;;;;;;;5045050;28;20194;-77
2022/08/27 06:19:18;;;;;;;23.83;19.05;;;;;;;;;;5066793;28;20221;-79
2022/08/27 06:21:46;;;;;;;22.92;20.27;;;;;;;;;;5066563;28;20197;-77
2022/08/27 06:24:33;;;;;;;20.70;18.33;;;;;;;;;;5059700;28;20232;-76
2022/08/27 06:27:01;;;;;;;22.15;19.55;;;;;;;;;;5059872;28;20259;-77
2022/08/27 06:29:28;;;;;;;22.92;18.85;;;;;;;;;;5063035;28;20202;-78
2022/08/27 06:31:55;;;;;;;25.15;20.10;;;;;;;;;;5046633;28;20225;-78
2022/08/27 06:34:23;;;;;;;23.92;20.48;;;;;;;;;;5066258;28;20264;-77
2022/08/27 06:36:50;;;;;;;22.95;19.38;;;;;;;;;;5065747;28;20232;-77
2022/08/27 06:39:17;;;;;;;21.38;18.95;;;;;;;;;;5064443;28;20228;-76
2022/08/27 06:41:45;;;;;;;20.98;18.67;;;;;;;;;;5060252;28;20301;-79
2022/08/27 06:44:13;;;;;;;21.90;19.25;;;;;;;;;;5062343;28;20248;-77
2022/08/27 06:46:40;;;;;;;21.90;18.65;;;;;;;;;;5042986;28;20265;-79
2022/08/27 06:49:08;;;;;;;18.92;16.27;;;;;;;;;;5071608;28;20284;-78
2022/08/27 06:51:37;;;;;;;18.55;16.60;;;;;;;;;;5073182;28;20256;-76
2022/08/27 06:54:08;;;;;;;18.63;15.55;;;;;;;;;;5070936;28;20233;-78
2022/08/27 06:56:35;;;;;;;17.33;15.43;;;;;;;;;;5060187;28;20719;-78
2022/08/27 06:59:06;;;;;;;17.75;15.45;;;;;;;;;;5048900;28;20218;-79
2022/08/27 07:01:40;;;;;;;17.85;15.35;;;;;;;;;;5041450;28;20280;-78
2022/08/27 07:04:09;;;;;;;17.40;15.63;;;;;;;;;;5056729;28;20247;-76
2022/08/27 07:06:36;;;;;;;17.17;15.45;;;;;;;;;;5044178;28;20221;-76
2022/08/27 07:09:07;;;;;;;17.55;15.15;;;;;;;;;;5059280;28;20205;-78
2022/08/27 07:11:34;;;;;;;16.55;14.75;;;;;;;;;;5060649;28;20221;-76
2022/08/27 07:14:02;;;;;;;16.55;14.45;;;;;;;;;;5063610;28;20365;-78
2022/08/27 07:16:29;;;;;;;15.98;14.27;;;;;;;;;;5044215;28;20218;-78
2022/08/27 07:18:57;;;;;;;14.38;12.88;;;;;;;;;;5070674;28;20198;-77
2022/08/27 07:21:29;;;;;;;14.05;12.55;;;;;;;;;;5067851;28;20209;-78
2022/08/27 07:23:58;;;;;;;13.68;12.27;;;;;;;;;;5054168;28;20313;-78
2022/08/27 07:26:25;;;;;;;13.27;11.93;;;;;;;;;;5065284;28;20992;-79
2022/08/27 07:28:53;;;;;;;13.85;12.52;;;;;;;;;;5067634;28;20236;-77
2022/08/27 07:31:21;;;;;;;14.00;12.60;;;;;;;;;;5069621;28;20277;-77
2022/08/27 07:33:49;;;;;;;13.75;12.43;;;;;;;;;;5065337;28;20316;-77
2022/08/27 07:36:20;;;;;;;17.52;13.45;;;;;;;;;;5066712;28;20206;-77
2022/08/27 07:38:47;;;;;;;16.15;14.57;;;;;;;;;;5061062;28;20194;-77
2022/08/27 07:41:26;;;;;;;17.23;15.10;;;;;;;;;;5066906;28;20208;-77
2022/08/27 07:46:44;;;;;;;18.20;15.85;;;;;;;;;;5070085;28;20205;-76
2022/08/27 07:49:16;;;;;;;17.63;15.77;;;;;;;;;;5072329;28;20260;-76
2022/08/27 07:51:43;;;;;;;19.00;16.52;;;;;;;;;;5053295;28;20225;-78
2022/08/27 07:54:11;;;;;;;18.27;16.33;;;;;;;;;;5068563;28;20355;-76
2022/08/27 07:56:38;;;;;;;21.80;18.15;;;;;;;;;;5044618;28;20219;-77
2022/08/27 07:59:06;;;;;;;22.25;18.38;;;;;;;;;;5063219;28;20288;-76
2022/08/27 08:01:33;;;;;;;20.70;18.08;;;;;;;;;;5069480;28;20236;-76
2022/08/27 08:04:01;;;;;;;20.38;17.63;;;;;;;;;;5066220;28;20704;-78
2022/08/27 08:06:28;;;;;;;22.10;17.48;;;;;;;;;;5047740;28;20296;-76
2022/08/27 08:08:55;;;;;;;18.15;16.20;;;;;;;;;;5064711;28;20221;-77
2022/08/27 08:11:23;;;;;;;18.67;16.48;;;;;;;;;;5062737;28;20328;-75
2022/08/27 08:13:50;;;;;;;18.15;15.32;;;;;;;;;;5062533;28;20281;-75
2022/08/27 08:16:18;;;;;;;18.27;16.17;;;;;;;;;;5059002;28;20209;-77
2022/08/27 08:18:45;;;;;;;18.02;15.77;;;;;;;;;;5065074;28;20204;-76
2022/08/27 08:21:13;;;;;;;18.58;15.73;;;;;;;;;;5065004;28;20224;-75
2022/08/27 08:23:41;;;;;;;18.02;16.13;;;;;;;;;;5064642;28;20431;-78
2022/08/27 08:26:09;;;;;;;18.33;16.33;;;;;;;;;;5059825;28;21585;-77
2022/08/27 08:28:37;;;;;;;19.05;16.92;;;;;;;;;;5067538;28;20640;-77
2022/08/27 08:31:04;;;;;;;17.92;15.55;;;;;;;;;;5067180;28;20249;-78
2022/08/27 08:33:32;;;;;;;18.75;16.45;;;;;;;;;;5055146;28;20711;-77
2022/08/27 08:36:11;;;;;;;17.50;15.70;;;;;;;;;;5052540;28;20288;-77
2022/08/27 08:38:39;;;;;;;18.10;15.88;;;;;;;;;;5064317;28;20201;-77
2022/08/27 08:41:07;;;;;;;18.33;16.52;;;;;;;;;;5048621;28;20241;-76
2022/08/27 08:43:50;;;;;;;19.77;17.00;;;;;;;;;;5044647;28;21173;-78
2022/08/27 08:46:17;;;;;;;20.25;17.83;;;;;;;;;;5027113;28;20255;-78
2022/08/27 08:48:46;;;;;;;19.05;16.48;;;;;;;;;;5049488;28;20381;-77
2022/08/27 08:51:14;;;;;;;19.33;17.27;;;;;;;;;;5046341;28;20348;-77
2022/08/27 08:54:02;;;;;;;19.95;17.85;;;;;;;;;;5047913;28;20325;-78
2022/08/27 08:56:49;;;;;;;19.60;17.50;;;;;;;;;;5033245;28;20245;-76
2022/08/27 08:59:27;;;;;;;19.50;17.60;;;;;;;;;;5052192;28;20284;-78
2022/08/27 09:01:54;;;;;;;19.08;17.00;;;;;;;;;;5051149;28;20288;-76
2022/08/27 09:04:23;;;;;;;20.73;18.58;;;;;;;;;;5045633;28;20312;-76
2022/08/27 09:07:07;;;;;;;20.13;18.02;;;;;;;;;;5052200;28;20213;-78
2022/08/27 09:09:46;;;;;;;19.50;17.20;;;;;;;;;;5054604;28;20201;-77
2022/08/27 09:12:18;;;;;;;19.25;17.25;;;;;;;;;;5046340;28;20652;-77
2022/08/27 09:14:51;;;;;;;19.88;17.25;;;;;;;;;;5038932;28;20222;-78
2022/08/27 09:17:20;;;;;;;19.42;17.42;;;;;;;;;;5050036;28;20201;-77
2022/08/27 09:19:47;;;;;;;19.88;17.80;;;;;;;;;;5066298;28;20239;-76
2022/08/27 09:22:27;;;;;;;18.70;16.73;;;;;;;;;;5061753;28;20247;-76
2022/08/27 09:24:58;;;;;;;20.73;16.77;;;;;;;;;;5051407;28;20232;-76
2022/08/27 09:27:25;;;;;;;19.17;16.88;;;;;;;;;;5049557;28;20676;-77
2022/08/27 09:29:54;;;;;;;18.42;16.63;;;;;;;;;;5051813;28;20301;-78
2022/08/27 09:32:26;;;;;;;19.85;17.63;;;;;;;;;;5053329;28;20316;-76
2022/08/27 09:34:56;;;;;;;20.83;18.10;;;;;;;;;;5059415;28;20754;-76
2022/08/27 09:37:28;;;;;;;21.92;17.50;;;;;;;;;;5052657;28;20233;-76
2022/08/27 09:40:12;;;;;;;18.83;16.77;;;;;;;;;;5037851;28;20218;-76
2022/08/27 09:42:53;;;;;;;17.33;15.65;;;;;;;;;;5040593;28;20194;-77
2022/08/27 09:45:24;;;;;;;18.85;16.90;;;;;;;;;;5062366;28;20301;-75
2022/08/27 09:48:02;;;;;;;17.55;15.75;;;;;;;;;;5056605;28;20225;-76
2022/08/27 09:50:45;;;;;;;17.40;15.43;;;;;;;;;;5055509;28;20248;-77
2022/08/27 09:53:27;;;;;;;18.20;15.82;;;;;;;;;;5037267;28;20744;-78
2022/08/27 09:56:02;;;;;;;17.35;14.88;;;;;;;;;;5052782;28;20259;-76
2022/08/27 09:58:31;;;;;;;15.95;14.35;;;;;;;;;;5054979;28;20201;-76
2022/08/27 10:01:16;;;;;;;17.70;15.40;;;;;;;;;;5044017;28;20908;-77
2022/08/27 10:03:43;;;;;;;17.08;15.43;;;;;;;;;;5054371;28;20320;-77
2022/08/27 10:06:11;;;;;;;17.92;16.02;;;;;;;;;;5055580;28;20209;-76
2022/08/27 10:08:45;;;;;;;19.17;17.13;;;;;;;;;;5057418;28;20665;-76
2022/08/27 10:11:18;;;;;;;18.20;15.85;;;;;;;;;;5050972;28;20244;-76
2022/08/27 10:13:49;;;;;;;19.52;17.38;;;;;;;;;;5059684;28;20222;-77
2022/08/27 10:16:34;;;;;;;16.42;14.77;;;;;;;;;;5060175;28;20205;-78
2022/08/27 10:19:14;;;;;;;18.35;15.88;;;;;;;;;;5046879;28;20206;-78
2022/08/27 10:21:41;;;;;;;18.08;16.33;;;;;;;;;;5064716;28;20272;-77
2022/08/27 10:24:23;;;;;;;23.88;18.38;;;;;;;;;;5060740;28;20260;-79
2022/08/27 10:27:07;;;;;;;20.45;18.33;;;;;;;;;;5057500;28;20272;-77
2022/08/27 10:29:41;;;;;;;20.10;17.90;;;;;;;;;;5040424;28;20201;-77
2022/08/27 10:32:08;;;;;;;20.13;17.90;;;;;;;;;;5052647;28;20477;-77
2022/08/27 10:34:45;;;;;;;22.00;19.80;;;;;;;;;;5062476;28;20228;-78
2022/08/27 10:37:34;;;;;;;19.25;17.08;;;;;;;;;;5054560;28;20291;-77
2022/08/27 10:40:13;;;;;;;18.25;16.42;;;;;;;;;;5061682;28;20225;-77
2022/08/27 10:42:59;;;;;;;17.60;15.55;;;;;;;;;;5059872;28;20209;-75
2022/08/27 10:45:33;;;;;;;16.30;14.70;;;;;;;;;;5050954;28;20293;-78
2022/08/27 10:48:23;;;;;;;18.27;16.40;;;;;;;;;;5063365;28;20320;-78
2022/08/27 10:50:56;;;;;;;19.70;17.60;;;;;;;;;;5058324;28;20221;-78
2022/08/27 10:53:23;;;;;;;19.27;17.38;;;;;;;;;;5044585;28;20283;-77
2022/08/27 10:55:54;;;;;;;20.40;18.23;;;;;;;;;;5058340;28;20236;-78
2022/08/27 10:58:35;;;;;;;19.15;17.15;;;;;;;;;;5066953;28;20646;-77
2022/08/27 11:01:05;;;;;;;19.23;17.30;;;;;;;;;;5048123;28;20281;-75
2022/08/27 11:03:35;;;;;;;18.23;16.35;;;;;;;;;;5060698;28;20233;-77
2022/08/27 11:06:14;;;;;;;17.10;15.35;;;;;;;;;;5059309;28;20202;-78
2022/08/27 11:08:44;;;;;;;16.60;14.70;;;;;;;;;;5053605;28;20205;-78
2022/08/27 11:11:14;;;;;;;15.95;14.20;;;;;;;;;;5047770;28;22460;-75
2022/08/27 11:14:02;;;;;;;15.23;13.63;;;;;;;;;;5059487;28;20284;-77
2022/08/27 11:16:33;;;;;;;15.07;13.57;;;;;;;;;;5056959;28;20293;-76
2022/08/27 11:19:18;;;;;;;12.00;10.90;;;;;;;;;;5057175;28;20206;-77
2022/08/27 11:22:09;;;;;;;12.80;11.60;;;;;;;;;;5061628;28;20225;-76
2022/08/27 11:25:01;;;;;;;12.55;11.20;;;;;;;;;;5042909;28;20243;-78
2022/08/27 11:27:29;;;;;;;11.60;10.38;;;;;;;;;;5054985;28;20296;-78
2022/08/27 11:30:03;;;;;;;10.48;9.48;;;;;;;;;;5057865;28;20300;-77
2022/08/27 11:32:33;;;;;;;11.75;10.55;;;;;;;;;;5058219;28;20257;-77
2022/08/27 11:35:02;;;;;;;11.88;10.77;;;;;;;;;;5040119;28;20253;-77
2022/08/27 11:37:30;;;;;;;13.00;11.70;;;;;;;;;;5058909;28;20335;-77
2022/08/27 11:39:57;;;;;;;11.25;9.40;;;;;;;;;;5059311;28;20206;-77
2022/08/27 11:42:46;;;;;;;8.38;7.55;;;;;;;;;;5054429;28;20214;-74
2022/08/27 11:45:19;;;;;;;8.73;7.85;;;;;;;;;;5052220;28;20914;-78
2022/08/27 11:47:57;;;;;;;5.32;4.90;;;;;;;;;;5053759;28;20227;-77
2022/08/27 11:50:25;;;;;;;6.05;4.75;;;;;;;;;;5062664;28;20197;-78
2022/08/27 11:53:06;;;;;;;4.47;4.10;;;;;;;;;;5063944;28;20360;-78
2022/08/27 11:55:35;;;;;;;4.25;3.95;;;;;;;;;;5056434;28;20232;-77
2022/08/27 11:58:23;;;;;;;3.90;3.60;;;;;;;;;;5053447;28;20336;-77
2022/08/27 12:00:52;;;;;;;4.80;4.40;;;;;;;;;;5041494;28;20197;-77
2022/08/27 12:03:19;;;;;;;5.30;4.90;;;;;;;;;;5053127;28;20217;-77
2022/08/27 12:05:53;;;;;;;5.03;4.50;;;;;;;;;;5052500;28;20240;-78
2022/08/27 12:08:23;;;;;;;5.20;4.80;;;;;;;;;;5053023;28;20202;-76
2022/08/27 12:11:01;;;;;;;5.15;4.75;;;;;;;;;;5057875;28;20201;-76
2022/08/27 12:13:34;;;;;;;5.00;4.60;;;;;;;;;;5068850;28;20293;-77
2022/08/27 12:16:11;;;;;;;4.80;4.40;;;;;;;;;;5049588;28;20297;-76
2022/08/27 12:18:41;;;;;;;5.80;4.90;;;;;;;;;;5064890;28;20682;-77
2022/08/27 12:21:14;;;;;;;6.22;5.63;;;;;;;;;;5069783;28;22267;-77
2022/08/27 12:23:54;;;;;;;6.40;5.80;;;;;;;;;;5057216;28;20247;-75
2022/08/27 12:26:21;;;;;;;6.72;6.13;;;;;;;;;;5074029;28;20225;-77
2022/08/27 12:28:49;;;;;;;7.72;7.03;;;;;;;;;;5071875;28;20240;-77
2022/08/27 12:31:19;;;;;;;7.95;6.40;;;;;;;;;;5055978;28;20330;-77
2022/08/27 12:33:48;;;;;;;7.35;6.75;;;;;;;;;;5056390;28;20311;-78
2022/08/27 12:36:19;;;;;;;9.25;7.32;;;;;;;;;;5068515;28;20619;-77
2022/08/27 12:38:56;;;;;;;7.32;6.65;;;;;;;;;;5074300;28;20247;-77
2022/08/27 12:41:36;;;;;;;8.80;8.10;;;;;;;;;;5074193;28;20212;-76
2022/08/27 12:44:12;;;;;;;8.20;7.35;;;;;;;;;;5070650;28;21046;-77
2022/08/27 12:46:51;;;;;;;9.48;8.15;;;;;;;;;;5073421;28;20297;-78
2022/08/27 12:49:20;;;;;;;8.70;7.90;;;;;;;;;;5057447;28;20557;-77
2022/08/27 12:52:13;;;;;;;8.43;7.63;;;;;;;;;;5073480;28;20221;-77
2022/08/27 12:55:12;;;;;;;8.60;7.80;;;;;;;;;;5074926;28;20259;-77
2022/08/27 12:57:53;;;;;;;8.52;7.38;;;;;;;;;;5020942;28;20225;-78
2022/08/27 13:00:21;;;;;;;7.97;7.28;;;;;;;;;;5070201;28;20209;-78
2022/08/27 13:03:01;;;;;;;6.63;6.03;;;;;;;;;;5064482;28;20201;-76
2022/08/27 13:05:36;;;;;;;6.97;6.38;;;;;;;;;;5069788;28;20236;-78
2022/08/27 13:08:04;;;;;;;6.57;6.07;;;;;;;;;;5074430;28;20224;-79
2022/08/27 13:10:32;;;;;;;6.32;5.82;;;;;;;;;;5066710;28;20285;-76
2022/08/27 13:13:11;;;;;;;7.05;6.35;;;;;;;;;;5071307;28;20248;-78
2022/08/27 13:15:49;;;;;;;7.38;6.45;;;;;;;;;;5059909;28;20293;-77
2022/08/27 13:18:17;;;;;;;7.55;6.85;;;;;;;;;;5063412;28;20227;-75
2022/08/27 13:20:44;;;;;;;7.53;6.82;;;;;;;;;;5052316;28;20233;-78
2022/08/27 13:23:22;;;;;;;9.57;7.65;;;;;;;;;;5064414;28;20224;-77
2022/08/27 13:26:02;;;;;;;12.30;8.98;;;;;;;;;;5020327;28;20711;-77
2022/08/27 13:28:30;;;;;;;9.27;8.38;;;;;;;;;;5048025;28;20273;-77
2022/08/27 13:30:57;;;;;;;8.98;8.07;;;;;;;;;;5032242;28;20293;-77
2022/08/27 13:33:27;;;;;;;9.55;8.10;;;;;;;;;;5047837;28;20765;-77
2022/08/27 13:35:59;;;;;;;9.02;8.13;;;;;;;;;;5055226;28;20343;-77
2022/08/27 13:38:27;;;;;;;8.40;7.60;;;;;;;;;;5052686;28;20205;-75
2022/08/27 13:40:57;;;;;;;7.10;6.50;;;;;;;;;;5057932;28;20210;-77
2022/08/27 13:43:31;;;;;;;5.80;5.30;;;;;;;;;;5059838;28;20230;-77
2022/08/27 13:45:59;;;;;;;5.05;4.65;;;;;;;;;;5059466;28;20278;-75
2022/08/27 13:48:27;;;;;;;4.47;4.18;;;;;;;;;;5049840;28;20209;-77
2022/08/27 13:50:56;;;;;;;4.05;3.65;;;;;;;;;;5058229;28;20197;-78
2022/08/27 13:56:28;;;;;;;4.70;4.18;;;;;;;;;;5059833;28;20772;-76
2022/08/27 13:59:06;;;;;;;4.35;3.95;;;;;;;;;;5056217;28;20621;-75
2022/08/27 14:01:36;;;;;;;4.72;4.38;;;;;;;;;;5059195;28;20271;-76
2022/08/27 14:04:06;;;;;;;3.90;3.60;;;;;;;;;;5054780;28;20307;-78
2022/08/27 14:06:33;;;;;;;3.65;3.35;;;;;;;;;;5039203;28;20218;-74
2022/08/27 14:09:16;;;;;;;3.97;3.30;;;;;;;;;;5033809;28;20217;-76
2022/08/27 14:11:44;;;;;;;3.33;3.03;;;;;;;;;;5045228;28;20247;-77
2022/08/27 14:14:12;;;;;;;3.42;3.00;;;;;;;;;;5054286;28;20267;-76
2022/08/27 14:16:40;;;;;;;3.80;3.50;;;;;;;;;;5052242;28;20732;-78
2022/08/27 14:19:08;;;;;;;3.85;3.55;;;;;;;;;;5058089;28;20362;-77
2022/08/27 14:21:36;;;;;;;3.38;3.08;;;;;;;;;;5055447;28;20510;-76
2022/08/27 14:24:03;;;;;;;3.58;3.38;;;;;;;;;;5055824;28;20262;-75
2022/08/27 14:26:32;;;;;;;3.65;3.15;;;;;;;;;;5041174;28;20202;-77
2022/08/27 14:28:59;;;;;;;2.90;2.70;;;;;;;;;;5054448;28;20585;-79
2022/08/27 14:31:27;;;;;;;3.63;3.33;;;;;;;;;;5065911;28;20672;-78
2022/08/27 14:33:55;;;;;;;3.60;3.30;;;;;;;;;;5059136;28;20598;-75
2022/08/27 14:36:23;;;;;;;3.92;3.40;;;;;;;;;;5057623;28;20202;-77
2022/08/27 14:38:51;;;;;;;3.65;3.35;;;;;;;;;;5055524;28;20624;-75
2022/08/27 14:41:20;;;;;;;3.78;3.55;;;;;;;;;;5048459;28;20200;-78
2022/08/27 14:43:48;;;;;;;3.85;3.38;;;;;;;;;;5057049;28;20304;-77
2022/08/27 14:46:41;;;;;;;4.13;3.63;;;;;;;;;;5062933;28;20285;-76
2022/08/27 14:49:13;;;;;;;4.88;4.35;;;;;;;;;;5055182;28;20202;-78
2022/08/27 14:51:41;;;;;;;4.32;3.88;;;;;;;;;;5050770;28;20317;-77